createdAt,value
2023-04-24T00:03:38.252Z,100.00
2023-04-24T00:11:12.368Z,100.00
2023-04-24T00:18:48.836Z,100.00
2023-04-24T00:26:22.708Z,100.00
2023-04-24T00:33:58.028Z,100.00
2023-04-24T00:41:32.501Z,100.00
2023-04-24T00:49:07.957Z,100.00
2023-04-24T00:56:42.315Z,100.00
2023-04-24T01:04:20.185Z,100.00
2023-04-24T01:11:54.992Z,100.00
2023-04-24T01:19:30.762Z,100.00
2023-04-24T01:27:06.061Z,100.00
2023-04-24T01:34:40.755Z,100.00
2023-04-24T01:42:16.548Z,100.00
2023-04-24T01:49:51.836Z,100.00
2023-04-24T01:57:27.511Z,100.00
2023-04-24T02:05:02.152Z,100.00
2023-04-24T02:12:37.340Z,100.00
2023-04-24T02:20:11.507Z,100.00
2023-04-24T02:27:47.066Z,100.00
2023-04-24T02:35:21.159Z,100.00
2023-04-24T02:42:56.457Z,100.00
2023-04-24T02:50:30.342Z,100.00
2023-04-24T02:58:05.727Z,100.00
2023-04-24T03:05:39.545Z,100.00
2023-04-24T03:13:14.950Z,100.00
2023-04-24T03:20:48.851Z,100.00
2023-04-24T03:28:24.388Z,100.00
2023-04-24T03:35:58.343Z,100.00
2023-04-24T03:43:34.472Z,100.00
2023-04-24T03:51:08.284Z,100.00
2023-04-24T03:58:44.381Z,100.00
2023-04-24T04:14:12.092Z,100.00
2023-04-24T04:21:46.827Z,100.00
2023-04-24T04:29:23.730Z,100.00
2023-04-24T04:37:00.740Z,100.00
2023-04-24T04:44:37.184Z,100.00
2023-04-24T04:52:11.705Z,100.00
2023-04-24T04:59:46.799Z,100.00
2023-04-24T05:07:20.811Z,100.00
2023-04-24T05:14:56.316Z,100.00
2023-04-24T05:22:30.266Z,100.00
2023-04-24T05:30:07.287Z,100.00
2023-04-24T05:37:41.312Z,100.00
2023-04-24T05:45:17.934Z,100.00
2023-04-24T05:52:51.904Z,100.00
2023-04-24T06:00:27.978Z,100.00
2023-04-24T06:08:01.938Z,100.00
2023-04-24T06:15:37.521Z,100.00
2023-04-24T06:23:11.606Z,100.00
2023-04-24T06:30:46.991Z,100.00
2023-04-24T06:38:21.313Z,98.17
2023-04-24T06:45:58.272Z,91.15
2023-04-24T06:53:32.641Z,80.54
2023-04-24T07:01:08.083Z,81.10
2023-04-24T07:08:43.009Z,79.95
2023-04-24T07:16:18.520Z,74.86
2023-04-24T07:23:52.482Z,70.61
2023-04-24T07:31:27.972Z,68.45
2023-04-24T07:39:01.966Z,68.67
2023-04-24T07:46:37.829Z,66.70
2023-04-24T07:54:11.802Z,62.97
2023-04-24T08:01:47.137Z,59.12
2023-04-24T08:09:21.060Z,54.77
2023-04-24T08:16:57.456Z,55.33
2023-04-24T08:24:31.290Z,54.59
2023-04-24T08:32:06.513Z,56.46
2023-04-24T08:39:40.885Z,55.13
2023-04-24T08:47:17.663Z,57.60
2023-04-24T08:54:51.663Z,57.18
2023-04-24T09:02:28.297Z,58.11
2023-04-24T09:10:03.974Z,58.67
2023-04-24T09:17:40.179Z,59.18
2023-04-24T09:25:14.575Z,59.39
2023-04-24T09:32:49.914Z,53.96
2023-04-24T09:40:25.217Z,55.59
2023-04-24T09:48:01.678Z,55.69
2023-04-24T09:55:40.977Z,54.51
2023-04-24T10:03:16.551Z,54.74
2023-04-24T10:10:50.502Z,53.58
2023-04-24T10:18:27.367Z,53.89
2023-04-24T10:26:02.783Z,54.55
2023-04-24T10:33:38.898Z,54.61
2023-04-24T10:41:17.574Z,55.62
2023-04-24T10:48:59.387Z,56.38
2023-04-24T10:56:35.366Z,54.80
2023-04-24T11:04:11.769Z,53.29
2023-04-24T11:11:47.936Z,52.32
2023-04-24T11:19:26.454Z,53.02
2023-04-24T11:27:06.949Z,54.49
2023-04-24T11:34:42.801Z,56.94
2023-04-24T11:42:17.585Z,59.50
2023-04-24T11:49:54.048Z,58.55
2023-04-24T11:57:29.961Z,57.85
2023-04-24T12:05:06.110Z,57.40
2023-04-24T12:12:40.541Z,43.17
2023-04-24T12:20:16.619Z,41.10
2023-04-24T12:27:55.733Z,38.51
2023-04-24T12:35:32.820Z,36.84
2023-04-24T12:43:16.418Z,37.55
2023-04-24T12:50:51.813Z,37.67
2023-04-24T12:58:25.941Z,37.25
2023-04-24T13:06:01.284Z,37.30
2023-04-24T13:13:35.104Z,34.53
2023-04-24T13:21:10.800Z,35.98
2023-04-24T13:28:44.895Z,34.93
2023-04-24T13:36:20.312Z,34.89
2023-04-24T13:43:54.255Z,35.43
2023-04-24T13:51:30.119Z,35.33
2023-04-24T13:59:04.075Z,35.99
2023-04-24T14:06:39.571Z,34.48
2023-04-24T14:14:13.790Z,34.87
2023-04-24T14:21:49.163Z,33.81
2023-04-24T14:29:23.009Z,35.53
2023-04-24T14:36:59.749Z,34.89
2023-04-24T14:44:34.126Z,35.64
2023-04-24T14:52:09.339Z,35.87
2023-04-24T14:59:43.136Z,35.07
2023-04-24T15:07:18.421Z,35.59
2023-04-24T15:14:52.293Z,34.93
2023-04-24T15:22:27.643Z,35.88
2023-04-24T15:30:01.434Z,36.22
2023-04-24T15:37:37.015Z,36.32
2023-04-24T15:45:11.972Z,36.94
2023-04-24T15:52:47.386Z,37.69
2023-04-24T16:00:21.870Z,37.14
2023-04-24T16:07:57.105Z,37.07
2023-04-24T16:15:31.319Z,37.51
2023-04-24T16:23:06.531Z,38.87
2023-04-24T16:30:40.814Z,39.69
2023-04-24T16:38:16.374Z,44.08
2023-04-24T16:45:50.241Z,46.74
2023-04-24T16:53:25.543Z,48.40
2023-04-24T17:00:59.969Z,50.35
2023-04-24T17:08:35.171Z,52.46
2023-04-24T17:16:08.790Z,53.56
2023-04-24T17:23:44.087Z,52.80
2023-04-24T17:31:18.070Z,53.00
2023-04-24T17:38:53.384Z,52.56
2023-04-24T17:46:27.191Z,52.70
2023-04-24T17:54:03.029Z,52.69
2023-04-24T18:01:36.885Z,53.90
2023-04-24T18:09:13.101Z,54.66
2023-04-24T18:16:48.238Z,54.65
2023-04-24T18:24:24.189Z,55.60
2023-04-24T18:31:58.723Z,55.69
2023-04-24T18:39:35.705Z,55.65
2023-04-24T18:47:09.737Z,55.94
2023-04-24T18:54:44.943Z,56.41
2023-04-24T19:02:19.511Z,56.58
2023-04-24T19:09:54.989Z,57.56
2023-04-24T19:17:29.113Z,58.41
2023-04-24T19:25:05.372Z,59.17
2023-04-24T19:32:39.638Z,59.45
2023-04-24T19:40:15.022Z,60.02
2023-04-24T19:47:48.929Z,60.87
2023-04-24T19:55:24.202Z,61.51
2023-04-24T20:02:58.775Z,61.58
2023-04-24T20:10:34.341Z,61.32
2023-04-24T20:18:08.125Z,60.98
2023-04-24T20:25:43.397Z,61.78
2023-04-24T20:33:17.282Z,62.14
2023-04-24T20:48:29.460Z,64.60
2023-04-24T20:56:05.392Z,65.04
2023-04-24T21:03:39.312Z,65.75
2023-04-24T21:11:14.647Z,66.28
2023-04-24T21:18:48.446Z,68.01
2023-04-24T21:26:23.650Z,69.39
2023-04-24T21:33:57.366Z,70.35
2023-04-24T21:41:33.074Z,70.56
2023-04-24T21:49:06.847Z,71.80
2023-04-24T21:56:42.473Z,71.99
2023-04-24T22:04:16.432Z,72.26
2023-04-24T22:11:51.659Z,72.29
2023-04-24T22:19:26.125Z,73.22
2023-04-24T22:27:01.349Z,74.03
2023-04-24T22:34:35.663Z,74.16
2023-04-24T22:42:10.952Z,75.33
2023-04-24T22:49:44.686Z,74.33
2023-04-24T22:57:19.936Z,72.55
2023-04-24T23:04:54.309Z,71.90
2023-04-24T23:12:29.828Z,72.17
2023-04-24T23:20:04.166Z,72.24
2023-04-24T23:27:39.697Z,70.96
2023-04-24T23:35:13.477Z,68.95
2023-04-24T23:42:59.697Z,68.63
2023-04-24T23:50:39.893Z,67.65
2023-04-24T23:58:15.045Z,66.40
